createdAt,value
2022-10-11T00:01:14.607Z,6.88
2022-10-11T00:06:17.159Z,6.40
2022-10-11T00:11:19.570Z,6.27
2022-10-11T00:16:21.827Z,6.13
2022-10-11T00:21:24.302Z,5.80
2022-10-11T00:26:26.829Z,6.75
2022-10-11T00:31:34.701Z,5.70
2022-10-11T00:36:37.946Z,4.78
2022-10-11T00:41:40.475Z,5.47
2022-10-11T00:46:45.634Z,5.85
2022-10-11T00:51:53.066Z,6.53
2022-10-11T00:56:59.308Z,5.82
2022-10-11T01:02:01.862Z,5.53
2022-10-11T01:07:04.637Z,6.13
2022-10-11T01:12:15.053Z,5.53
2022-10-11T01:17:42.159Z,5.20
2022-10-11T01:22:56.265Z,6.88
2022-10-11T01:28:14.767Z,5.85
2022-10-11T01:33:35.700Z,5.88
2022-10-11T01:38:42.323Z,7.13
2022-10-11T01:43:45.959Z,5.85
2022-10-11T01:48:53.915Z,5.05
2022-10-11T01:54:05.308Z,5.50
2022-10-11T01:59:40.454Z,5.70
2022-10-11T02:04:48.204Z,5.68
2022-10-11T02:10:05.809Z,5.97
2022-10-11T02:15:09.924Z,6.38
2022-10-11T02:20:14.712Z,6.20
2022-10-11T02:25:22.019Z,6.60
2022-10-11T02:30:25.399Z,5.60
2022-10-11T02:35:30.616Z,6.17
2022-10-11T02:40:35.998Z,6.40
2022-10-11T02:45:41.974Z,6.53
2022-10-11T02:50:44.809Z,7.35
2022-10-11T02:55:51.938Z,6.30
2022-10-11T03:00:54.089Z,7.20
2022-10-11T03:06:01.295Z,7.80
2022-10-11T03:11:06.884Z,6.63
2022-10-11T03:16:09.533Z,7.32
2022-10-11T03:21:11.952Z,6.97
2022-10-11T03:26:14.277Z,6.88
2022-10-11T03:31:16.642Z,5.55
2022-10-11T03:36:18.935Z,4.30
2022-10-11T03:41:21.142Z,5.40
2022-10-11T03:46:23.628Z,5.05
2022-10-11T03:51:26.302Z,4.63
2022-10-11T03:56:28.579Z,5.30
2022-10-11T04:01:33.182Z,6.38
2022-10-11T04:06:35.385Z,5.78
2022-10-11T04:11:37.589Z,5.10
2022-10-11T04:16:40.307Z,4.85
2022-10-11T04:21:42.796Z,5.27
2022-10-11T04:26:45.041Z,4.47
2022-10-11T04:31:47.338Z,4.85
2022-10-11T04:36:51.608Z,4.90
2022-10-11T04:41:55.299Z,4.50
2022-10-11T04:51:59.866Z,4.55
2022-10-11T04:57:02.134Z,4.60
2022-10-11T05:02:05.535Z,4.95
2022-10-11T05:07:07.789Z,6.55
2022-10-11T05:12:10.101Z,5.10
2022-10-11T05:17:12.500Z,4.13
2022-10-11T05:22:14.785Z,3.50
2022-10-11T05:27:17.078Z,3.60
2022-10-11T05:32:19.255Z,4.03
2022-10-11T05:37:21.705Z,4.30
2022-10-11T05:42:24.482Z,4.57
2022-10-11T05:47:27.153Z,4.60
2022-10-11T05:52:29.392Z,3.47
2022-10-11T05:57:31.715Z,4.55
2022-10-11T06:02:34.354Z,4.88
2022-10-11T06:07:37.972Z,4.40
2022-10-11T06:17:42.530Z,4.25
2022-10-11T06:22:44.704Z,3.30
2022-10-11T06:27:46.993Z,4.47
2022-10-11T06:32:49.483Z,5.25
2022-10-11T06:37:52.128Z,4.07
2022-10-11T06:42:54.348Z,5.77
2022-10-11T06:47:56.651Z,5.30
2022-10-11T06:52:59.601Z,5.95
2022-10-11T06:58:01.923Z,7.00
2022-10-11T07:03:05.022Z,4.20
2022-10-11T07:08:07.187Z,3.60
2022-10-11T07:13:12.533Z,2.80
2022-10-11T07:18:18.587Z,3.38
2022-10-11T07:23:21.111Z,3.60
2022-10-11T07:33:27.381Z,2.87
2022-10-11T07:38:29.619Z,3.75
2022-10-11T07:43:32.843Z,3.38
2022-10-11T07:48:36.227Z,3.80
2022-10-11T07:53:41.629Z,3.42
2022-10-11T07:58:43.928Z,3.35
2022-10-11T08:03:47.287Z,3.08
2022-10-11T08:08:49.796Z,3.22
2022-10-11T08:13:52.707Z,3.35
2022-10-11T08:18:56.950Z,3.60
2022-10-11T08:23:59.691Z,2.70
2022-10-11T08:29:03.490Z,3.10
2022-10-11T08:34:06.355Z,3.15
2022-10-11T08:39:08.656Z,3.33
2022-10-11T08:44:20.094Z,2.85
2022-10-11T08:49:25.307Z,3.08
2022-10-11T08:54:45.649Z,3.40
2022-10-11T08:59:59.684Z,3.20
2022-10-11T09:05:03.337Z,3.28
2022-10-11T09:10:26.789Z,3.13
2022-10-11T09:15:47.835Z,2.90
2022-10-11T09:21:04.786Z,2.85
2022-10-11T09:26:35.569Z,2.60
2022-10-11T09:31:37.960Z,4.85
2022-10-11T09:37:17.980Z,3.50
2022-10-11T09:42:20.250Z,2.92
2022-10-11T09:52:28.968Z,3.53
2022-10-11T09:57:36.573Z,3.13
2022-10-11T10:02:47.571Z,3.38
2022-10-11T10:08:11.494Z,2.20
2022-10-11T10:13:21.987Z,2.08
2022-10-11T10:18:33.055Z,3.58
2022-10-11T10:23:36.919Z,1.98
2022-10-11T10:28:39.898Z,2.30
2022-10-11T10:33:42.721Z,2.30
2022-10-11T10:43:57.464Z,1.80
2022-10-11T10:49:48.861Z,2.00
2022-10-11T11:00:14.525Z,1.60
2022-10-11T11:05:48.518Z,2.00
2022-10-11T11:11:03.590Z,1.83
2022-10-11T11:16:32.700Z,2.00
2022-10-11T11:22:04.593Z,2.28
2022-10-11T11:27:16.175Z,3.13
2022-10-11T11:32:33.049Z,3.22
2022-10-11T11:37:41.237Z,5.30
2022-10-11T11:42:52.040Z,6.43
2022-10-11T11:48:02.425Z,8.82
2022-10-11T11:53:08.141Z,5.18
2022-10-11T11:58:25.419Z,4.78
2022-10-11T12:03:32.518Z,3.53
2022-10-11T12:08:39.055Z,3.20
2022-10-11T12:13:42.593Z,1.80
2022-10-11T12:18:57.284Z,2.30
2022-10-11T12:24:01.598Z,1.90
2022-10-11T12:29:17.109Z,1.63
2022-10-11T12:34:55.593Z,2.10
2022-10-11T12:39:59.249Z,2.33
2022-10-11T12:45:12.287Z,4.65
2022-10-11T12:50:38.623Z,5.38
2022-10-11T12:56:11.569Z,5.75
2022-10-11T13:01:23.365Z,7.63
2022-10-11T13:06:33.426Z,8.88
2022-10-11T13:11:43.693Z,4.32
2022-10-11T13:17:09.720Z,8.85
2022-10-11T13:22:19.073Z,9.95
2022-10-11T13:27:24.281Z,3.83
2022-10-11T13:32:29.899Z,2.50
2022-10-11T13:37:40.198Z,2.95
2022-10-11T13:42:42.904Z,1.80
2022-10-11T13:47:47.293Z,2.60
2022-10-11T13:58:18.710Z,2.50
2022-10-11T14:03:21.817Z,2.33
2022-10-11T14:08:34.956Z,2.22
2022-10-11T14:13:43.291Z,16.05
2022-10-11T14:19:12.110Z,17.60
2022-10-11T14:24:15.040Z,12.77
2022-10-11T14:29:32.186Z,18.45
2022-10-11T14:34:35.665Z,8.60
2022-10-11T14:39:37.932Z,9.73
2022-10-11T14:44:41.738Z,34.55
2022-10-11T14:54:49.274Z,15.18
2022-10-11T14:59:51.906Z,32.95
2022-10-11T15:04:54.098Z,33.40
2022-10-11T15:09:56.253Z,40.33
2022-10-11T15:14:58.536Z,38.13
2022-10-11T15:20:00.830Z,32.42
2022-10-11T15:25:05.377Z,19.73
2022-10-11T15:30:13.577Z,43.55
2022-10-11T15:35:20.697Z,41.17
2022-10-11T15:40:26.712Z,39.05
2022-10-11T15:45:29.474Z,26.98
2022-10-11T15:50:34.641Z,14.10
2022-10-11T15:55:44.001Z,9.55
2022-10-11T16:00:48.472Z,7.80
2022-10-11T16:05:52.120Z,6.05
2022-10-11T16:10:55.392Z,9.55
2022-10-11T16:15:57.710Z,41.72
2022-10-11T16:21:00.429Z,51.92
2022-10-11T16:26:06.390Z,56.15
2022-10-11T16:31:16.868Z,59.42
2022-10-11T16:36:40.419Z,66.75
2022-10-11T16:41:43.111Z,75.22
2022-10-11T16:46:49.911Z,65.32
2022-10-11T16:51:59.306Z,61.28
2022-10-11T16:57:02.444Z,63.15
2022-10-11T17:02:05.481Z,66.28
2022-10-11T17:07:13.124Z,63.08
2022-10-11T17:12:18.577Z,56.70
2022-10-11T17:17:21.271Z,61.10
2022-10-11T17:22:23.661Z,79.70
2022-10-11T17:27:26.256Z,76.97
2022-10-11T17:32:28.417Z,81.32
2022-10-11T17:37:30.701Z,82.07
2022-10-11T17:42:33.755Z,76.82
2022-10-11T17:47:35.954Z,83.57
2022-10-11T17:52:38.472Z,87.50
2022-10-11T17:57:41.384Z,87.75
2022-10-11T18:02:44.985Z,80.75
2022-10-11T18:12:54.095Z,85.80
2022-10-11T18:18:00.063Z,89.88
2022-10-11T18:23:02.641Z,88.35
2022-10-11T18:28:05.025Z,79.25
2022-10-11T18:33:07.222Z,67.80
2022-10-11T18:38:09.465Z,58.00
2022-10-11T18:43:11.680Z,54.35
2022-10-11T18:48:14.346Z,47.85
2022-10-11T18:53:17.093Z,41.17
2022-10-11T18:58:19.673Z,39.57
2022-10-11T19:03:22.347Z,37.80
2022-10-11T19:08:24.875Z,36.93
2022-10-11T19:13:27.307Z,38.50
2022-10-11T19:18:29.781Z,48.47
2022-10-11T19:23:42.037Z,50.83
2022-10-11T19:28:45.584Z,44.03
2022-10-11T19:38:56.815Z,45.50
2022-10-11T19:43:59.468Z,49.95
2022-10-11T19:49:04.693Z,55.70
2022-10-11T19:54:12.496Z,59.78
2022-10-11T19:59:15.511Z,71.47
2022-10-11T20:04:39.534Z,73.32
2022-10-11T20:09:40.447Z,71.80
2022-10-11T20:14:42.978Z,67.13
2022-10-11T20:19:45.227Z,64.60
2022-10-11T20:24:47.527Z,66.25
2022-10-11T20:29:50.179Z,70.95
2022-10-11T20:34:54.777Z,62.70
2022-10-11T20:40:00.619Z,53.35
2022-10-11T20:45:03.068Z,50.80
2022-10-11T20:50:06.082Z,40.13
2022-10-11T20:55:08.975Z,56.33
2022-10-11T21:00:12.222Z,37.70
2022-10-11T21:05:14.542Z,47.45
2022-10-11T21:10:19.444Z,39.78
2022-10-11T21:15:22.490Z,36.80
2022-10-11T21:20:25.400Z,41.67
2022-10-11T21:25:27.566Z,43.20
2022-10-11T21:30:33.780Z,46.38
2022-10-11T21:35:39.219Z,51.15
2022-10-11T21:40:41.491Z,59.47
2022-10-11T21:45:43.677Z,61.30
2022-10-11T21:50:58.050Z,58.42
2022-10-11T21:56:00.744Z,56.28
2022-10-11T22:01:03.497Z,58.47
2022-10-11T22:06:06.190Z,64.77
2022-10-11T22:11:09.399Z,64.13
2022-10-11T22:21:20.494Z,54.38
2022-10-11T22:26:26.132Z,50.53
2022-10-11T22:31:28.904Z,50.50
2022-10-11T22:36:31.138Z,53.90
2022-10-11T22:41:35.548Z,58.40
2022-10-11T22:46:39.134Z,47.00
2022-10-11T22:51:41.912Z,27.05
2022-10-11T22:56:44.343Z,23.58
2022-10-11T23:01:47.718Z,22.55
2022-10-11T23:06:51.153Z,22.65
2022-10-11T23:11:56.561Z,22.25
2022-10-11T23:17:11.921Z,24.35
2022-10-11T23:22:17.424Z,24.43
2022-10-11T23:32:46.266Z,26.45
2022-10-11T23:37:48.612Z,24.95
2022-10-11T23:42:50.845Z,22.25
2022-10-11T23:48:04.598Z,20.58
2022-10-11T23:53:33.908Z,20.50
2022-10-11T23:58:39.313Z,19.77
